Time;durP1;ratioP1;P1;durP2;ratioP2;P2;SDS_P1;SDS_P2;PMS_P1;PMS_P2;Temp;Humidity;BMP_temperature;BMP_pressure;BME280_temperature;BME280_humidity;BME280_pressure;Samples;Min_cycle;Max_cycle;Signal;HPM_P1;HPM_P2
2022/09/27 00:01:28;;;;;;;;;;;;;;;;;;4969430;28;19918;-61
2022/09/27 00:03:54;;;;;;;;;;;;;;;;;;4968443;28;19922;-62
2022/09/27 00:06:22;;;;;;;;;;;;;;;;;;4981307;28;19975;-62
2022/09/27 00:08:52;;;;;;;;;;;;;;;;;;4971191;28;19917;-61
2022/09/27 00:11:17;;;;;;;;;;;;;;;;;;4983850;28;20497;-62
2022/09/27 00:13:43;;;;;;;;;;;;;;;;;;4985099;28;19944;-62
2022/09/27 00:16:10;;;;;;;;;;;;;;;;;;4984110;28;20000;-62
2022/09/27 00:18:35;;;;;;;;;;;;;;;;;;4969693;28;19925;-63
2022/09/27 00:21:03;;;;;;;;;;;;;;;;;;4984701;28;19921;-61
2022/09/27 00:23:31;;;;;;;;;;;;;;;;;;4968377;28;19929;-61
2022/09/27 00:25:56;;;;;;;;;;;;;;;;;;4971546;28;19933;-62
2022/09/27 00:28:21;;;;;;;;;;;;;;;;;;4982748;28;19922;-62
2022/09/27 00:30:50;;;;;;;;;;;;;;;;;;4968546;28;20887;-62
2022/09/27 00:33:17;;;;;;;;;;;;;;;;;;4984122;28;19926;-63
2022/09/27 00:35:43;;;;;;;;;;;;;;;;;;4987168;28;20541;-63
2022/09/27 00:38:08;;;;;;;;;;;;;;;;;;4986344;28;19932;-63
2022/09/27 00:40:34;;;;;;;;;;;;;;;;;;4983735;28;20044;-63
2022/09/27 00:43:00;;;;;;;;;;;;;;;;;;4971148;28;19937;-63
2022/09/27 00:45:27;;;;;;;;;;;;;;;;;;4986173;28;19918;-63
2022/09/27 00:47:53;;;;;;;;;;;;;;;;;;4959038;28;19964;-65
2022/09/27 00:50:18;;;;;;;;;;;;;;;;;;4980760;28;19921;-62
2022/09/27 00:52:47;;;;;;;;;;;;;;;;;;4971094;28;19922;-62
2022/09/27 00:55:12;;;;;;;;;;;;;;;;;;4972460;28;19917;-64
2022/09/27 00:57:38;;;;;;;;;;;;;;;;;;4966315;28;19922;-63
2022/09/27 01:00:04;;;;;;;;;;;;;;;;;;4969268;28;19926;-63
2022/09/27 01:02:31;;;;;;;;;;;;;;;;;;4985607;28;20615;-63
2022/09/27 01:04:57;;;;;;;;;;;;;;;;;;4957210;28;20408;-64
2022/09/27 01:07:27;;;;;;;;;;;;;;;;;;4971020;28;19917;-64
2022/09/27 01:09:52;;;;;;;;;;;;;;;;;;4973452;28;19941;-63
2022/09/27 01:12:18;;;;;;;;;;;;;;;;;;4989006;28;19930;-64
2022/09/27 01:14:43;;;;;;;;;;;;;;;;;;4957831;28;19921;-63
2022/09/27 01:17:09;;;;;;;;;;;;;;;;;;4990579;28;20630;-63
2022/09/27 01:19:38;;;;;;;;;;;;;;;;;;4987730;28;20397;-63
2022/09/27 01:22:03;;;;;;;;;;;;;;;;;;4970468;28;19922;-63
2022/09/27 01:24:30;;;;;;;;;;;;;;;;;;4979529;28;20008;-62
2022/09/27 01:26:55;;;;;;;;;;;;;;;;;;4988933;28;19924;-62
2022/09/27 01:29:22;;;;;;;;;;;;;;;;;;4971857;28;19917;-62
2022/09/27 01:31:48;;;;;;;;;;;;;;;;;;4971675;28;19921;-63
2022/09/27 01:34:14;;;;;;;;;;;;;;;;;;4973056;28;20714;-63
2022/09/27 01:36:41;;;;;;;;;;;;;;;;;;4956747;28;19921;-63
2022/09/27 01:39:07;;;;;;;;;;;;;;;;;;4966609;28;19922;-63
2022/09/27 01:41:34;;;;;;;;;;;;;;;;;;4989336;28;19925;-61
2022/09/27 01:44:00;;;;;;;;;;;;;;;;;;4971588;28;19921;-61
2022/09/27 01:46:26;;;;;;;;;;;;;;;;;;4988805;28;19913;-62
2022/09/27 01:48:51;;;;;;;;;;;;;;;;;;4970410;28;19941;-62
2022/09/27 01:51:17;;;;;;;;;;;;;;;;;;4957030;28;20900;-62
2022/09/27 01:53:45;;;;;;;;;;;;;;;;;;4969306;28;19949;-60
2022/09/27 01:56:12;;;;;;;;;;;;;;;;;;4989850;28;20016;-61
2022/09/27 01:58:40;;;;;;;;;;;;;;;;;;4988478;28;19921;-61
2022/09/27 02:01:10;;;;;;;;;;;;;;;;;;4987043;28;19968;-60
2022/09/27 02:03:35;;;;;;;;;;;;;;;;;;4965167;28;19921;-61
2022/09/27 02:06:00;;;;;;;;;;;;;;;;;;4954835;28;20515;-60
2022/09/27 02:08:26;;;;;;;;;;;;;;;;;;4954395;28;19944;-61
2022/09/27 02:10:51;;;;;;;;;;;;;;;;;;4967851;28;20392;-62
2022/09/27 02:13:16;;;;;;;;;;;;;;;;;;4966714;28;19960;-64
2022/09/27 02:15:41;;;;;;;;;;;;;;;;;;4963769;28;19922;-62
2022/09/27 02:18:09;;;;;;;;;;;;;;;;;;4957626;28;20385;-62
2022/09/27 02:20:37;;;;;;;;;;;;;;;;;;4951951;28;19928;-62
2022/09/27 02:23:05;;;;;;;;;;;;;;;;;;4963800;28;19918;-62
2022/09/27 02:25:30;;;;;;;;;;;;;;;;;;4963862;28;19967;-62
2022/09/27 02:27:55;;;;;;;;;;;;;;;;;;4963570;28;20412;-61
2022/09/27 02:30:21;;;;;;;;;;;;;;;;;;4963752;28;20122;-63
2022/09/27 02:32:48;;;;;;;;;;;;;;;;;;4981048;28;20032;-62
2022/09/27 02:35:13;;;;;;;;;;;;;;;;;;4966160;28;19922;-63
2022/09/27 02:37:41;;;;;;;;;;;;;;;;;;4958537;28;20403;-64
2022/09/27 02:40:07;;;;;;;;;;;;;;;;;;4965885;28;19960;-63
2022/09/27 02:42:32;;;;;;;;;;;;;;;;;;4966884;28;20021;-62
2022/09/27 02:44:57;;;;;;;;;;;;;;;;;;4963787;28;19992;-65
2022/09/27 02:47:25;;;;;;;;;;;;;;;;;;4965714;28;20452;-63
2022/09/27 02:49:51;;;;;;;;;;;;;;;;;;4965960;28;19925;-64
2022/09/27 02:52:19;;;;;;;;;;;;;;;;;;4967444;28;20001;-60
2022/09/27 02:54:49;;;;;;;;;;;;;;;;;;4964058;28;19944;-62
2022/09/27 02:57:17;;;;;;;;;;;;;;;;;;4965558;28;19930;-64
2022/09/27 03:02:28;;;;;;;;;;;;;;;;;;4960935;28;19940;-62
2022/09/27 03:04:55;;;;;;;;;;;;;;;;;;4963003;28;20447;-64
2022/09/27 03:07:21;;;;;;;;;;;;;;;;;;4963979;28;20059;-62
2022/09/27 03:09:47;;;;;;;;;;;;;;;;;;4961292;28;19917;-61
2022/09/27 03:12:12;;;;;;;;;;;;;;;;;;4980723;28;19943;-64
2022/09/27 03:14:38;;;;;;;;;;;;;;;;;;4983295;28;19918;-62
2022/09/27 03:17:03;;;;;;;;;;;;;;;;;;4978426;28;19932;-61
2022/09/27 03:19:29;;;;;;;;;;;;;;;;;;4982874;28;20012;-62
2022/09/27 03:21:54;;;;;;;;;;;;;;;;;;4983172;28;19922;-63
2022/09/27 03:24:20;;;;;;;;;;;;;;;;;;4965581;28;19917;-65
2022/09/27 03:26:45;;;;;;;;;;;;;;;;;;4982365;28;20381;-64
2022/09/27 03:29:11;;;;;;;;;;;;;;;;;;4953509;28;19922;-65
2022/09/27 03:31:39;;;;;;;;;;;;;;;;;;4967509;28;19921;-62
2022/09/27 03:34:06;;;;;;;;;;;;;;;;;;4967332;28;19922;-63
2022/09/27 03:36:32;;;;;;;;;;;;;;;;;;4968528;28;20016;-63
2022/09/27 03:38:59;;;;;;;;;;;;;;;;;;4983622;28;19937;-63
2022/09/27 03:41:24;;;;;;;;;;;;;;;;;;4968468;28;19921;-62
2022/09/27 03:43:55;;;;;;;;;;;;;;;;;;4967581;28;20275;-60
2022/09/27 03:46:20;;;;;;;;;;;;;;;;;;4968133;28;19947;-63
2022/09/27 03:48:50;;;;;;;;;;;;;;;;;;4978730;28;20538;-62
2022/09/27 03:51:18;;;;;;;;;;;;;;;;;;4983715;28;19917;-62
2022/09/27 03:53:44;;;;;;;;;;;;;;;;;;4984647;28;19924;-63
2022/09/27 03:56:12;;;;;;;;;;;;;;;;;;4968344;28;19948;-61
2022/09/27 03:58:37;;;;;;;;;;;;;;;;;;4959441;28;19932;-62
2022/09/27 04:01:02;;;;;;;;;;;;;;;;;;4962155;28;19914;-63
2022/09/27 04:03:28;;;;;;;;;;;;;;;;;;4971269;28;19921;-63
2022/09/27 04:06:01;;;;;;;;;;;;;;;;;;4978569;28;19938;-63
2022/09/27 04:08:26;;;;;;;;;;;;;;;;;;4967706;28;19977;-61
2022/09/27 04:10:51;;;;;;;;;;;;;;;;;;4986637;28;20032;-61
2022/09/27 04:13:16;;;;;;;;;;;;;;;;;;4991087;28;20301;-61
2022/09/27 04:15:42;;;;;;;;;;;;;;;;;;4992506;28;19922;-61
2022/09/27 04:18:09;;;;;;;;;;;;;;;;;;4978326;28;19917;-61
2022/09/27 04:20:35;;;;;;;;;;;;;;;;;;4972664;28;20388;-61
2022/09/27 04:23:05;;;;;;;;;;;;;;;;;;4977371;28;20029;-62
2022/09/27 04:25:33;;;;;;;;;;;;;;;;;;4993425;28;20040;-61
2022/09/27 04:28:01;;;;;;;;;;;;;;;;;;4989122;28;19921;-63
2022/09/27 04:30:31;;;;;;;;;;;;;;;;;;4971992;28;20009;-64
2022/09/27 04:32:58;;;;;;;;;;;;;;;;;;4991831;28;20021;-61
2022/09/27 04:38:13;;;;;;;;;;;;;;;;;;4990138;28;20420;-63
2022/09/27 04:40:40;;;;;;;;;;;;;;;;;;4973501;28;20342;-61
2022/09/27 04:43:06;;;;;;;;;;;;;;;;;;4955966;28;19921;-62
2022/09/27 04:45:31;;;;;;;;;;;;;;;;;;4958480;28;19929;-61
2022/09/27 04:47:56;;;;;;;;;;;;;;;;;;4959160;28;19927;-62
2022/09/27 04:50:24;;;;;;;;;;;;;;;;;;4974424;28;19922;-63
2022/09/27 04:52:52;;;;;;;;;;;;;;;;;;4974291;28;19924;-63
2022/09/27 04:55:26;;;;;;;;;;;;;;;;;;4959004;28;19936;-62
2022/09/27 04:57:51;;;;;;;;;;;;;;;;;;4972163;28;19971;-64
2022/09/27 05:00:17;;;;;;;;;;;;;;;;;;4991635;28;19922;-63
2022/09/27 05:02:42;;;;;;;;;;;;;;;;;;4957876;28;19921;-62
2022/09/27 05:05:08;;;;;;;;;;;;;;;;;;4971361;28;20017;-62
2022/09/27 05:07:37;;;;;;;;;;;;;;;;;;4989625;28;20008;-63
2022/09/27 05:10:04;;;;;;;;;;;;;;;;;;4970275;28;19917;-64
2022/09/27 05:12:32;;;;;;;;;;;;;;;;;;4976954;28;19977;-64
2022/09/27 05:15:00;;;;;;;;;;;;;;;;;;4970315;28;19972;-63
2022/09/27 05:17:25;;;;;;;;;;;;;;;;;;4982514;28;19925;-62
2022/09/27 05:19:53;;;;;;;;;;;;;;;;;;4965931;28;20345;-62
2022/09/27 05:22:21;;;;;;;;;;;;;;;;;;4968305;28;20082;-61
2022/09/27 05:24:47;;;;;;;;;;;;;;;;;;4965036;28;19925;-61
2022/09/27 05:27:19;;;;;;;;;;;;;;;;;;4967883;28;20361;-63
2022/09/27 05:29:44;;;;;;;;;;;;;;;;;;4967382;28;20326;-62
2022/09/27 05:32:12;;;;;;;;;;;;;;;;;;4966432;28;19929;-62
2022/09/27 05:34:37;;;;;;;;;;;;;;;;;;4965648;28;19973;-63
2022/09/27 05:37:02;;;;;;;;;;;;;;;;;;4952417;28;19917;-62
2022/09/27 05:39:30;;;;;;;;;;;;;;;;;;4966989;28;19925;-62
2022/09/27 05:41:58;;;;;;;;;;;;;;;;;;4969028;28;19921;-63
2022/09/27 05:44:24;;;;;;;;;;;;;;;;;;4968102;28;19926;-63
2022/09/27 05:46:52;;;;;;;;;;;;;;;;;;4966551;28;19917;-62
2022/09/27 05:49:19;;;;;;;;;;;;;;;;;;4965800;28;20301;-63
2022/09/27 05:51:44;;;;;;;;;;;;;;;;;;4966128;28;19922;-63
2022/09/27 05:54:09;;;;;;;;;;;;;;;;;;4967499;28;19944;-61
2022/09/27 05:56:37;;;;;;;;;;;;;;;;;;4952745;28;19944;-62
2022/09/27 05:59:02;;;;;;;;;;;;;;;;;;4958786;28;19926;-63
2022/09/27 06:01:28;;;;;;;;;;;;;;;;;;4962446;28;19918;-63
2022/09/27 06:03:53;;;;;;;;;;;;;;;;;;4950745;28;20441;-63
2022/09/27 06:06:19;;;;;;;;;;;;;;;;;;4964260;28;19937;-63
2022/09/27 06:08:45;;;;;;;;;;;;;;;;;;4964002;28;19922;-62
2022/09/27 06:11:13;;;;;;;;;;;;;;;;;;4964471;28;21985;-61
2022/09/27 06:13:41;;;;;;;;;;;;;;;;;;4964693;28;20532;-62
2022/09/27 06:16:06;;;;;;;;;;;;;;;;;;4965907;28;19953;-63
2022/09/27 06:18:33;;;;;;;;;;;;;;;;;;4965554;28;19983;-62
2022/09/27 06:21:12;;;;;;;;;;;;;;;;;;4965469;28;19922;-61
2022/09/27 06:26:54;;;;;;;;;;;;;;;;;;4964652;28;20687;-63
2022/09/27 06:29:19;;;;;;;;;;;;;;;;;;4966598;28;19918;-63
2022/09/27 06:31:45;;;;;;;;;;;;;;;;;;4962159;28;20001;-64
2022/09/27 06:34:10;;;;;;;;;;;;;;;;;;4965733;28;20462;-62
2022/09/27 06:36:44;;;;;;;;;;;;;;;;;;4968170;28;19928;-64
2022/09/27 06:39:10;;;;;;;;;;;;;;;;;;4964156;28;20470;-63
2022/09/27 06:41:38;;;;;;;;;;;;;;;;;;4966790;28;19975;-64
2022/09/27 06:47:20;;;;;;;;;;;;;;;;;;4965751;28;19928;-63
2022/09/27 06:50:04;;;;;;;;;;;;;;;;;;4975546;28;19926;-62
2022/09/27 06:52:32;;;;;;;;;;;;;;;;;;4965015;28;19922;-64
2022/09/27 06:54:57;;;;;;;;;;;;;;;;;;4964438;28;20670;-63
2022/09/27 07:00:41;;;;;;;;;;;;;;;;;;4963965;28;20784;-63
2022/09/27 07:03:10;;;;;;;;;;;;;;;;;;4962584;28;19918;-65
2022/09/27 07:05:38;;;;;;;;;;;;;;;;;;4965365;28;19932;-63
2022/09/27 07:08:03;;;;;;;;;;;;;;;;;;4950203;28;19922;-63
2022/09/27 07:10:28;;;;;;;;;;;;;;;;;;4965801;28;19922;-64
2022/09/27 07:12:59;;;;;;;;;;;;;;;;;;4985611;28;20403;-63
2022/09/27 07:15:27;;;;;;;;;;;;;;;;;;4969073;28;19922;-64
2022/09/27 07:17:57;;;;;;;;;;;;;;;;;;4955568;28;19972;-62
2022/09/27 07:20:22;;;;;;;;;;;;;;;;;;4970672;28;19922;-63
2022/09/27 07:22:48;;;;;;;;;;;;;;;;;;4968898;28;20396;-63
2022/09/27 07:25:15;;;;;;;;;;;;;;;;;;4985554;28;19929;-64
2022/09/27 07:30:57;;;;;;;;;;;;;;;;;;4984697;28;19929;-64
2022/09/27 07:33:22;;;;;;;;;;;;;;;;;;4955735;28;19922;-64
2022/09/27 07:35:50;;;;;;;;;;;;;;;;;;4983562;28;21885;-63
2022/09/27 07:44:49;;;;;;;;;;;;;;;;;;4986403;28;19931;-63
2022/09/27 07:47:15;;;;;;;;;;;;;;;;;;4988628;28;19921;-61
2022/09/27 07:49:41;;;;;;;;;;;;;;;;;;4959105;28;19917;-61
2022/09/27 07:54:51;;;;;;;;;;;;;;;;;;4987220;28;19926;-61
2022/09/27 07:57:16;;;;;;;;;;;;;;;;;;4971336;28;20961;-62
2022/09/27 07:59:41;;;;;;;;;;;;;;;;;;4959527;28;19940;-62
2022/09/27 08:02:10;;;;;;;;;;;;;;;;;;4958367;28;19925;-63
2022/09/27 08:04:37;;;;;;;;;;;;;;;;;;4989241;28;19953;-63
2022/09/27 08:07:02;;;;;;;;;;;;;;;;;;4986044;28;20055;-62
2022/09/27 08:09:28;;;;;;;;;;;;;;;;;;4986581;28;20758;-63
2022/09/27 08:12:11;;;;;;;;;;;;;;;;;;4987513;28;20284;-62
2022/09/27 08:14:46;;;;;;;;;;;;;;;;;;4988852;28;19953;-63
2022/09/27 08:17:26;;;;;;;;;;;;;;;;;;4986858;28;20003;-63
2022/09/27 08:19:51;;;;;;;;;;;;;;;;;;4985363;28;20563;-64
2022/09/27 08:22:16;;;;;;;;;;;;;;;;;;4988282;28;19917;-63
2022/09/27 08:24:44;;;;;;;;;;;;;;;;;;4985193;28;19961;-63
2022/09/27 08:27:09;;;;;;;;;;;;;;;;;;4988635;28;19972;-64
2022/09/27 08:29:35;;;;;;;;;;;;;;;;;;4958018;28;20404;-65
2022/09/27 08:35:22;;;;;;;;;;;;;;;;;;4985846;28;21996;-63
2022/09/27 08:37:54;;;;;;;;;;;;;;;;;;4971393;28;19929;-62
2022/09/27 08:40:22;;;;;;;;;;;;;;;;;;4988033;28;20945;-60
2022/09/27 08:42:51;;;;;;;;;;;;;;;;;;4958638;28;19932;-64
2022/09/27 08:45:16;;;;;;;;;;;;;;;;;;4971120;28;19921;-62
2022/09/27 08:47:42;;;;;;;;;;;;;;;;;;4971639;28;19922;-61
2022/09/27 08:50:07;;;;;;;;;;;;;;;;;;4957040;28;21117;-63
2022/09/27 08:52:33;;;;;;;;;;;;;;;;;;4957153;28;19917;-62
2022/09/27 08:55:00;;;;;;;;;;;;;;;;;;4987532;28;20035;-62
2022/09/27 08:57:31;;;;;;;;;;;;;;;;;;4969128;28;19921;-62
2022/09/27 08:59:57;;;;;;;;;;;;;;;;;;4979533;28;20566;-62
2022/09/27 09:02:26;;;;;;;;;;;;;;;;;;4986242;28;19952;-63
2022/09/27 09:04:51;;;;;;;;;;;;;;;;;;4985620;28;19922;-63
2022/09/27 09:07:19;;;;;;;;;;;;;;;;;;4946458;28;19932;-62
2022/09/27 09:09:44;;;;;;;;;;;;;;;;;;4971837;28;19932;-61
2022/09/27 09:14:56;;;;;;;;;;;;;;;;;;4970885;28;19929;-61
2022/09/27 09:17:24;;;;;;;;;;;;;;;;;;4984350;28;20007;-61
2022/09/27 09:26:24;;;;;;;;;;;;;;;;;;4985016;28;19968;-62
2022/09/27 09:32:06;;;;;;;;;;;;;;;;;;4985801;28;19997;-64
2022/09/27 09:34:31;;;;;;;;;;;;;;;;;;4973665;28;20369;-64
2022/09/27 09:36:57;;;;;;;;;;;;;;;;;;4970772;28;20016;-64
2022/09/27 09:39:30;;;;;;;;;;;;;;;;;;4955799;28;19925;-63
2022/09/27 09:44:40;;;;;;;;;;;;;;;;;;4984319;28;19926;-62
2022/09/27 09:47:07;;;;;;;;;;;;;;;;;;4969484;28;19921;-63
2022/09/27 09:49:33;;;;;;;;;;;;;;;;;;4986573;28;20035;-62
2022/09/27 09:51:58;;;;;;;;;;;;;;;;;;4956746;28;19926;-63
2022/09/27 09:54:24;;;;;;;;;;;;;;;;;;4986647;28;19928;-64
2022/09/27 09:59:46;;;;;;;;;;;;;;;;;;4985000;28;19925;-61
2022/09/27 10:02:12;;;;;;;;;;;;;;;;;;4984833;28;19925;-61
2022/09/27 10:04:37;;;;;;;;;;;;;;;;;;4985838;28;19921;-62
2022/09/27 10:07:08;;;;;;;;;;;;;;;;;;4983326;28;19918;-62
2022/09/27 10:09:38;;;;;;;;;;;;;;;;;;4984152;28;20364;-62
2022/09/27 10:12:05;;;;;;;;;;;;;;;;;;4970252;28;19982;-62
2022/09/27 10:17:59;;;;;;;;;;;;;;;;;;4984651;28;20043;-63
2022/09/27 10:20:25;;;;;;;;;;;;;;;;;;4968885;28;21639;-61
2022/09/27 10:26:10;;;;;;;;;;;;;;;;;;4986945;28;20635;-63
2022/09/27 10:28:53;;;;;;;;;;;;;;;;;;4954867;28;20141;-62
2022/09/27 10:31:21;;;;;;;;;;;;;;;;;;4971196;28;20787;-61
2022/09/27 10:37:03;;;;;;;;;;;;;;;;;;4984153;28;19924;-61
2022/09/27 10:39:31;;;;;;;;;;;;;;;;;;4971179;28;19922;-60
2022/09/27 10:41:56;;;;;;;;;;;;;;;;;;4986632;28;19933;-63
2022/09/27 10:44:22;;;;;;;;;;;;;;;;;;4984610;28;19917;-59
2022/09/27 10:46:49;;;;;;;;;;;;;;;;;;4978443;28;19918;-60
2022/09/27 10:52:31;;;;;;;;;;;;;;;;;;4985015;28;19973;-61
2022/09/27 10:54:56;;;;;;;;;;;;;;;;;;4984740;28;20593;-63
2022/09/27 10:57:22;;;;;;;;;;;;;;;;;;4956016;28;20443;-61
2022/09/27 10:59:49;;;;;;;;;;;;;;;;;;4973967;28;19925;-62
2022/09/27 11:02:15;;;;;;;;;;;;;;;;;;4981500;28;19982;-62
2022/09/27 11:04:40;;;;;;;;;;;;;;;;;;4982875;28;20345;-61
2022/09/27 11:10:23;;;;;;;;;;;;;;;;;;4985228;28;19929;-61
2022/09/27 11:12:49;;;;;;;;;;;;;;;;;;4972887;28;20058;-61
2022/09/27 11:15:19;;;;;;;;;;;;;;;;;;4988294;28;19918;-63
2022/09/27 11:17:49;;;;;;;;;;;;;;;;;;4986254;28;21364;-63
2022/09/27 11:20:17;;;;;;;;;;;;;;;;;;4987131;28;20775;-62
2022/09/27 11:25:59;;;;;;;;;;;;;;;;;;4987683;28;19928;-65
2022/09/27 11:28:24;;;;;;;;;;;;;;;;;;4964526;28;19921;-63
2022/09/27 11:30:52;;;;;;;;;;;;;;;;;;4984091;28;19922;-64
2022/09/27 11:33:17;;;;;;;;;;;;;;;;;;4950960;28;19928;-65
2022/09/27 11:35:46;;;;;;;;;;;;;;;;;;4952031;28;19922;-65
2022/09/27 11:38:11;;;;;;;;;;;;;;;;;;4979312;28;19973;-65
2022/09/27 11:40:40;;;;;;;;;;;;;;;;;;4959849;28;19926;-65
2022/09/27 11:43:08;;;;;;;;;;;;;;;;;;4962186;28;20577;-65
2022/09/27 11:45:33;;;;;;;;;;;;;;;;;;4960655;28;19971;-60
2022/09/27 11:47:59;;;;;;;;;;;;;;;;;;4988497;28;19971;-63
2022/09/27 11:50:26;;;;;;;;;;;;;;;;;;4955977;28;20851;-64
2022/09/27 11:52:52;;;;;;;;;;;;;;;;;;4967157;28;20040;-63
2022/09/27 11:55:18;;;;;;;;;;;;;;;;;;4948437;28;20004;-61
2022/09/27 12:01:00;;;;;;;;;;;;;;;;;;4984841;28;20013;-62
2022/09/27 12:03:26;;;;;;;;;;;;;;;;;;4979384;28;19921;-63
2022/09/27 12:12:43;;;;;;;;;;;;;;;;;;4974482;28;19927;-63
2022/09/27 12:15:09;;;;;;;;;;;;;;;;;;4977042;28;19972;-64
2022/09/27 12:17:34;;;;;;;;;;;;;;;;;;4962054;28;20106;-63
2022/09/27 12:20:02;;;;;;;;;;;;;;;;;;4945352;28;19934;-63
2022/09/27 12:22:27;;;;;;;;;;;;;;;;;;4959066;28;20311;-64
2022/09/27 12:24:53;;;;;;;;;;;;;;;;;;4973052;28;19922;-64
2022/09/27 12:27:18;;;;;;;;;;;;;;;;;;4954528;28;20239;-64
2022/09/27 12:29:46;;;;;;;;;;;;;;;;;;4965250;28;19956;-64
2022/09/27 12:32:14;;;;;;;;;;;;;;;;;;4956052;28;19921;-65
2022/09/27 12:37:58;;;;;;;;;;;;;;;;;;4974852;28;21674;-66
2022/09/27 12:43:40;;;;;;;;;;;;;;;;;;4976587;28;19937;-67
2022/09/27 12:46:07;;;;;;;;;;;;;;;;;;4974927;28;20276;-66
2022/09/27 12:48:33;;;;;;;;;;;;;;;;;;4964158;28;19921;-66
2022/09/27 12:57:30;;;;;;;;;;;;;;;;;;4974622;28;21075;-66
2022/09/27 13:00:02;;;;;;;;;;;;;;;;;;4978187;28;20514;-67
2022/09/27 13:02:27;;;;;;;;;;;;;;;;;;4978677;28;20831;-64
2022/09/27 13:04:53;;;;;;;;;;;;;;;;;;4978556;28;19921;-66
2022/09/27 13:07:18;;;;;;;;;;;;;;;;;;4975577;28;19922;-65
2022/09/27 13:09:44;;;;;;;;;;;;;;;;;;4964214;28;19930;-64
2022/09/27 13:12:21;;;;;;;;;;;;;;;;;;4962598;28;19952;-65
2022/09/27 13:14:46;;;;;;;;;;;;;;;;;;4947043;28;19957;-61
2022/09/27 13:20:38;;;;;;;;;;;;;;;;;;4959787;28;20444;-61
2022/09/27 13:23:03;;;;;;;;;;;;;;;;;;4953822;28;19941;-61
2022/09/27 13:25:29;;;;;;;;;;;;;;;;;;4958829;28;19918;-61
2022/09/27 13:27:54;;;;;;;;;;;;;;;;;;4945908;28;19922;-62
2022/09/27 13:30:22;;;;;;;;;;;;;;;;;;4944731;28;20564;-63
2022/09/27 13:32:49;;;;;;;;;;;;;;;;;;4960668;28;20322;-61
2022/09/27 13:35:14;;;;;;;;;;;;;;;;;;4936629;28;19921;-64
2022/09/27 13:37:41;;;;;;;;;;;;;;;;;;4957667;28;19980;-60
2022/09/27 13:40:09;;;;;;;;;;;;;;;;;;4942359;28;19926;-63
2022/09/27 13:42:34;;;;;;;;;;;;;;;;;;4942458;28;19922;-62
2022/09/27 13:45:18;;;;;;;;;;;;;;;;;;4965770;28;19928;-61
2022/09/27 13:47:44;;;;;;;;;;;;;;;;;;4935613;28;20475;-61
2022/09/27 13:50:10;;;;;;;;;;;;;;;;;;4962014;28;19918;-61
2022/09/27 13:52:35;;;;;;;;;;;;;;;;;;4940994;28;19926;-61
2022/09/27 13:55:00;;;;;;;;;;;;;;;;;;4964294;28;19926;-61
2022/09/27 13:57:44;;;;;;;;;;;;;;;;;;4963022;28;20345;-62
2022/09/27 14:00:09;;;;;;;;;;;;;;;;;;4959893;28;19922;-62
2022/09/27 14:02:35;;;;;;;;;;;;;;;;;;4963658;28;20795;-63
2022/09/27 14:08:16;;;;;;;;;;;;;;;;;;4960014;28;20027;-62
2022/09/27 14:10:44;;;;;;;;;;;;;;;;;;4960914;28;20034;-60
2022/09/27 14:13:12;;;;;;;;;;;;;;;;;;4958879;28;19917;-61
2022/09/27 14:15:40;;;;;;;;;;;;;;;;;;4961653;28;19922;-62
2022/09/27 14:21:22;;;;;;;;;;;;;;;;;;4959689;28;19924;-62
2022/09/27 14:23:50;;;;;;;;;;;;;;;;;;4962418;28;19918;-61
2022/09/27 14:26:18;;;;;;;;;;;;;;;;;;4944511;28;19928;-62
2022/09/27 14:28:47;;;;;;;;;;;;;;;;;;4960066;28;19995;-60
2022/09/27 14:31:13;;;;;;;;;;;;;;;;;;4961374;28;20376;-61
2022/09/27 14:39:15;;;;;;;;;;;;;;;;;;4954323;28;20024;-63
2022/09/27 14:41:40;;;;;;;;;;;;;;;;;;4924884;28;19928;-64
2022/09/27 14:44:05;;;;;;;;;;;;;;;;;;4918421;28;19925;-63
2022/09/27 14:46:34;;;;;;;;;;;;;;;;;;4953769;28;20017;-62
2022/09/27 14:49:05;;;;;;;;;;;;;;;;;;4948948;28;19918;-64
2022/09/27 14:51:31;;;;;;;;;;;;;;;;;;4949165;28;19980;-63
2022/09/27 14:53:57;;;;;;;;;;;;;;;;;;4943753;28;20641;-64
2022/09/27 14:56:26;;;;;;;;;;;;;;;;;;4945092;28;19957;-62
2022/09/27 14:58:51;;;;;;;;;;;;;;;;;;4954398;28;20558;-63
2022/09/27 15:01:17;;;;;;;;;;;;;;;;;;4939480;28;19937;-64
2022/09/27 15:03:45;;;;;;;;;;;;;;;;;;4951809;28;19929;-63
2022/09/27 15:06:10;;;;;;;;;;;;;;;;;;4952381;28;20401;-65
2022/09/27 15:08:38;;;;;;;;;;;;;;;;;;4958307;28;21853;-64
2022/09/27 15:11:04;;;;;;;;;;;;;;;;;;4939519;28;19937;-65
2022/09/27 15:13:30;;;;;;;;;;;;;;;;;;4955709;28;19918;-64
2022/09/27 15:15:58;;;;;;;;;;;;;;;;;;4940944;28;19932;-66
2022/09/27 15:18:24;;;;;;;;;;;;;;;;;;4937968;28;20064;-65
2022/09/27 15:20:52;;;;;;;;;;;;;;;;;;4938095;28;19928;-65
2022/09/27 15:23:20;;;;;;;;;;;;;;;;;;4936580;28;19926;-64
2022/09/27 15:26:01;;;;;;;;;;;;;;;;;;4933519;28;20692;-64
2022/09/27 15:28:27;;;;;;;;;;;;;;;;;;4936017;28;20385;-64
2022/09/27 15:30:52;;;;;;;;;;;;;;;;;;4934629;28;21469;-65
2022/09/27 15:33:17;;;;;;;;;;;;;;;;;;4936177;28;20381;-65
2022/09/27 15:35:45;;;;;;;;;;;;;;;;;;4937372;28;20024;-65
2022/09/27 15:38:10;;;;;;;;;;;;;;;;;;4933832;28;19922;-64
2022/09/27 15:40:36;;;;;;;;;;;;;;;;;;4934384;28;19934;-65
2022/09/27 15:43:01;;;;;;;;;;;;;;;;;;4939248;28;19969;-65
2022/09/27 15:45:29;;;;;;;;;;;;;;;;;;4937874;28;21720;-66
2022/09/27 15:47:55;;;;;;;;;;;;;;;;;;4941867;28;19933;-65
2022/09/27 15:50:21;;;;;;;;;;;;;;;;;;4932703;28;20226;-65
2022/09/27 15:52:46;;;;;;;;;;;;;;;;;;4936437;28;19929;-63
2022/09/27 15:55:11;;;;;;;;;;;;;;;;;;4921300;28;19922;-64
2022/09/27 15:57:53;;;;;;;;;;;;;;;;;;4952384;28;19918;-64
2022/09/27 16:00:34;;;;;;;;;;;;;;;;;;4941639;28;19926;-64
2022/09/27 16:03:15;;;;;;;;;;;;;;;;;;4938504;28;20353;-64
2022/09/27 16:05:40;;;;;;;;;;;;;;;;;;4937872;28;20941;-65
2022/09/27 16:11:12;;;;;;;;;;;;;;;;;;4960333;28;20458;-65
2022/09/27 16:13:38;;;;;;;;;;;;;;;;;;4960876;28;20013;-65
2022/09/27 16:16:05;;;;;;;;;;;;;;;;;;4940260;28;20444;-65
2022/09/27 16:21:51;;;;;;;;;;;;;;;;;;4964261;28;19929;-64
2022/09/27 16:24:31;;;;;;;;;;;;;;;;;;4964544;28;20020;-65
2022/09/27 16:26:56;;;;;;;;;;;;;;;;;;4963637;28;19918;-65
2022/09/27 16:29:30;;;;;;;;;;;;;;;;;;4962738;28;19929;-65
2022/09/27 16:32:09;;;;;;;;;;;;;;;;;;4943943;28;20613;-66
2022/09/27 16:34:35;;;;;;;;;;;;;;;;;;4961893;28;19922;-65
2022/09/27 16:37:00;;;;;;;;;;;;;;;;;;4964081;28;21555;-65
2022/09/27 16:39:25;;;;;;;;;;;;;;;;;;4964986;28;20456;-65
2022/09/27 16:41:53;;;;;;;;;;;;;;;;;;4966799;28;19918;-65
2022/09/27 16:44:24;;;;;;;;;;;;;;;;;;4967048;28;19918;-65
2022/09/27 16:52:51;;;;;;;;;;;;;;;;;;4952231;28;19929;-61
2022/09/27 16:55:19;;;;;;;;;;;;;;;;;;4947118;28;19926;-62
2022/09/27 16:57:45;;;;;;;;;;;;;;;;;;4948697;28;19922;-62
2022/09/27 17:03:27;;;;;;;;;;;;;;;;;;4964462;28;19932;-60
2022/09/27 17:05:55;;;;;;;;;;;;;;;;;;4963436;28;19926;-61
2022/09/27 17:11:36;;;;;;;;;;;;;;;;;;4943157;28;20042;-65
2022/09/27 17:17:18;;;;;;;;;;;;;;;;;;4940528;28;19926;-63
2022/09/27 17:19:56;;;;;;;;;;;;;;;;;;4948430;28;19930;-65
2022/09/27 17:22:22;;;;;;;;;;;;;;;;;;4926672;28;19974;-63
2022/09/27 17:24:50;;;;;;;;;;;;;;;;;;4915071;28;20013;-60
2022/09/27 17:27:15;;;;;;;;;;;;;;;;;;4937428;28;19949;-67
2022/09/27 17:29:40;;;;;;;;;;;;;;;;;;4936014;28;19922;-65
2022/09/27 17:32:07;;;;;;;;;;;;;;;;;;4927629;28;20542;-65
2022/09/27 17:34:35;;;;;;;;;;;;;;;;;;4927871;28;19918;-63
2022/09/27 17:37:04;;;;;;;;;;;;;;;;;;4914320;28;20661;-64
2022/09/27 17:39:30;;;;;;;;;;;;;;;;;;4929487;28;19926;-59
2022/09/27 17:42:11;;;;;;;;;;;;;;;;;;4947581;28;19918;-62
2022/09/27 17:44:39;;;;;;;;;;;;;;;;;;4943291;28;19921;-63
2022/09/27 17:52:35;;;;;;;;;;;;;;;;;;4933202;28;19929;-66
2022/09/27 17:55:03;;;;;;;;;;;;;;;;;;4923909;28;19972;-65
2022/09/27 17:57:31;;;;;;;;;;;;;;;;;;4923815;28;20730;-66
2022/09/27 17:59:58;;;;;;;;;;;;;;;;;;4946867;28;19937;-65
2022/09/27 18:02:26;;;;;;;;;;;;;;;;;;4929620;28;19922;-66
2022/09/27 18:04:54;;;;;;;;;;;;;;;;;;4946137;28;19922;-66
2022/09/27 18:07:28;;;;;;;;;;;;;;;;;;4947366;28;19930;-65
2022/09/27 18:09:54;;;;;;;;;;;;;;;;;;4953622;28;21941;-65
2022/09/27 18:12:20;;;;;;;;;;;;;;;;;;4963659;28;19929;-65
2022/09/27 18:14:45;;;;;;;;;;;;;;;;;;4966958;28;19971;-66
2022/09/27 18:17:11;;;;;;;;;;;;;;;;;;4962704;28;19922;-65
2022/09/27 18:19:36;;;;;;;;;;;;;;;;;;4947126;28;19969;-65
2022/09/27 18:22:02;;;;;;;;;;;;;;;;;;4966102;28;20017;-65
2022/09/27 18:24:28;;;;;;;;;;;;;;;;;;4944870;28;20334;-66
2022/09/27 18:26:54;;;;;;;;;;;;;;;;;;4963300;28;19969;-65
2022/09/27 18:29:37;;;;;;;;;;;;;;;;;;4960932;28;19917;-66
2022/09/27 18:32:02;;;;;;;;;;;;;;;;;;4959824;28;20036;-66
2022/09/27 18:34:28;;;;;;;;;;;;;;;;;;4961861;28;19922;-65
2022/09/27 18:36:53;;;;;;;;;;;;;;;;;;4955909;28;20930;-65
2022/09/27 18:39:18;;;;;;;;;;;;;;;;;;4946922;28;19930;-65
2022/09/27 18:41:47;;;;;;;;;;;;;;;;;;4965106;28;19926;-65
2022/09/27 18:44:12;;;;;;;;;;;;;;;;;;4964072;28;20292;-65
2022/09/27 18:46:41;;;;;;;;;;;;;;;;;;4964051;28;20013;-65
2022/09/27 18:49:06;;;;;;;;;;;;;;;;;;4957897;28;19926;-65
2022/09/27 18:51:31;;;;;;;;;;;;;;;;;;4961135;28;21768;-65
2022/09/27 18:53:57;;;;;;;;;;;;;;;;;;4959392;28;19996;-65
2022/09/27 18:56:22;;;;;;;;;;;;;;;;;;4958081;28;19922;-64
2022/09/27 18:58:50;;;;;;;;;;;;;;;;;;4960633;28;19925;-65
2022/09/27 19:01:18;;;;;;;;;;;;;;;;;;4956927;28;19932;-65